Time;durP1;ratioP1;P1;durP2;ratioP2;P2;SDS_P1;SDS_P2;PMS_P1;PMS_P2;Temp;Humidity;BMP_temperature;BMP_pressure;BME280_temperature;BME280_humidity;BME280_pressure;Samples;Min_cycle;Max_cycle;Signal;HPM_P1;HPM_P2
2022/12/30 00:01:40;;;;;;;5.30;1.52;;;;;;;;;;5120119;28;20066;-83
2022/12/30 00:04:05;;;;;;;6.68;1.83;;;;;;;;;;5101824;28;20080;-83
2022/12/30 00:06:31;;;;;;;4.40;2.00;;;;;;;;;;5103473;28;20028;-84
2022/12/30 00:08:57;;;;;;;6.57;2.38;;;;;;;;;;5116775;28;20028;-84
2022/12/30 00:11:32;;;;;;;5.63;2.03;;;;;;;;;;5116103;28;20020;-83
2022/12/30 00:33:47;;;;;;;5.80;1.80;;;;;;;;;;5116539;28;20100;-83
2022/12/30 00:36:12;;;;;;;5.68;1.67;;;;;;;;;;5116665;28;20083;-83
2022/12/30 00:38:37;;;;;;;6.28;2.00;;;;;;;;;;5098317;28;20122;-83
2022/12/30 00:43:47;;;;;;;5.43;2.10;;;;;;;;;;5116544;28;20039;-83
2022/12/30 00:46:12;;;;;;;5.75;1.80;;;;;;;;;;5098240;28;20039;-83
2022/12/30 00:56:49;;;;;;;7.55;1.83;;;;;;;;;;5100540;28;20104;-83
2022/12/30 00:59:15;;;;;;;6.95;1.85;;;;;;;;;;5115922;28;20028;-82
2022/12/30 01:01:40;;;;;;;4.15;1.52;;;;;;;;;;5116092;28;20378;-83
2022/12/30 01:04:06;;;;;;;4.78;1.73;;;;;;;;;;5114476;28;20031;-83
2022/12/30 01:06:31;;;;;;;4.28;1.63;;;;;;;;;;5114867;28;20359;-82
2022/12/30 01:08:57;;;;;;;2.65;1.40;;;;;;;;;;5113224;28;20030;-83
2022/12/30 01:11:22;;;;;;;4.53;1.75;;;;;;;;;;5097824;28;20127;-83
2022/12/30 01:13:48;;;;;;;5.38;1.67;;;;;;;;;;5114968;28;20031;-83
2022/12/30 01:16:15;;;;;;;5.30;1.95;;;;;;;;;;5114336;28;20031;-83
2022/12/30 01:18:41;;;;;;;3.58;1.55;;;;;;;;;;5114310;28;20080;-83
2022/12/30 01:21:07;;;;;;;5.95;1.67;;;;;;;;;;5115818;28;20032;-83
2022/12/30 01:23:33;;;;;;;7.38;2.10;;;;;;;;;;5114244;28;20020;-83
2022/12/30 01:26:06;;;;;;;4.95;1.70;;;;;;;;;;5114536;28;20026;-82
2022/12/30 01:28:36;;;;;;;3.85;1.50;;;;;;;;;;5114091;28;20034;-83
2022/12/30 01:31:05;;;;;;;5.65;1.63;;;;;;;;;;5115171;28;20031;-83
2022/12/30 01:33:30;;;;;;;2.88;1.30;;;;;;;;;;5114341;28;20019;-83
2022/12/30 01:35:56;;;;;;;5.97;1.67;;;;;;;;;;5115526;28;20028;-83
2022/12/30 01:38:21;;;;;;;3.50;1.45;;;;;;;;;;5113813;28;20497;-82
2022/12/30 01:40:47;;;;;;;3.95;1.75;;;;;;;;;;5096820;28;20150;-83
2022/12/30 01:43:14;;;;;;;4.65;1.50;;;;;;;;;;5097490;28;20074;-83
2022/12/30 01:45:42;;;;;;;3.17;1.40;;;;;;;;;;5096796;28;20116;-83
2022/12/30 01:48:22;;;;;;;4.25;1.80;;;;;;;;;;5113689;28;20481;-83
2022/12/30 01:51:00;;;;;;;3.08;1.40;;;;;;;;;;5113676;28;20115;-83
2022/12/30 01:53:33;;;;;;;5.35;1.70;;;;;;;;;;5113868;28;20057;-83
2022/12/30 01:56:33;;;;;;;5.47;1.92;;;;;;;;;;5114890;28;20110;-83
2022/12/30 01:59:04;;;;;;;3.33;1.25;;;;;;;;;;5090874;28;20036;-83
2022/12/30 02:01:31;;;;;;;4.30;1.50;;;;;;;;;;5113656;28;20034;-83
2022/12/30 02:04:03;;;;;;;3.45;1.67;;;;;;;;;;5113446;28;20031;-83
2022/12/30 02:06:41;;;;;;;4.03;1.60;;;;;;;;;;5096414;28;20023;-83
2022/12/30 02:09:07;;;;;;;3.15;1.42;;;;;;;;;;5113594;28;20110;-83
2022/12/30 02:11:32;;;;;;;7.60;1.60;;;;;;;;;;5114517;28;20043;-84
2022/12/30 02:13:58;;;;;;;3.13;1.42;;;;;;;;;;5113139;28;20027;-83
2022/12/30 02:17:01;;;;;;;3.83;1.70;;;;;;;;;;5114178;28;20034;-83
2022/12/30 02:19:32;;;;;;;5.75;1.50;;;;;;;;;;5112475;28;20020;-83
2022/12/30 02:22:21;;;;;;;4.32;1.60;;;;;;;;;;5114304;28;20518;-83
2022/12/30 02:25:10;;;;;;;2.95;1.58;;;;;;;;;;5112993;28;20386;-82
2022/12/30 02:28:15;;;;;;;3.80;1.42;;;;;;;;;;5114192;28;20070;-82
2022/12/30 02:31:08;;;;;;;2.85;1.50;;;;;;;;;;5105848;28;20028;-83
2022/12/30 02:33:41;;;;;;;2.38;1.42;;;;;;;;;;5112749;28;20097;-83
2022/12/30 02:36:26;;;;;;;2.72;1.40;;;;;;;;;;5095911;28;20032;-82
2022/12/30 02:39:04;;;;;;;2.72;1.50;;;;;;;;;;5095516;28;20028;-83
2022/12/30 02:44:50;;;;;;;4.28;1.63;;;;;;;;;;5113213;28;20445;-83
2022/12/30 02:47:43;;;;;;;4.60;1.65;;;;;;;;;;5076623;28;20428;-83
2022/12/30 02:52:58;;;;;;;4.63;1.63;;;;;;;;;;5112806;28;20026;-83
2022/12/30 02:55:23;;;;;;;2.60;1.50;;;;;;;;;;5112629;28;20035;-83
2022/12/30 02:57:49;;;;;;;4.95;1.58;;;;;;;;;;5113662;28;20056;-82
2022/12/30 03:06:14;;;;;;;5.82;1.95;;;;;;;;;;5113695;28;20069;-82
2022/12/30 03:09:03;;;;;;;4.10;1.58;;;;;;;;;;5095415;28;20027;-83
2022/12/30 03:11:36;;;;;;;4.72;1.83;;;;;;;;;;5112337;28;20031;-82
2022/12/30 03:14:23;;;;;;;5.90;1.90;;;;;;;;;;5095363;28;20110;-83
2022/12/30 03:16:52;;;;;;;4.55;1.80;;;;;;;;;;5112603;28;20339;-83
2022/12/30 03:19:22;;;;;;;12.43;2.42;;;;;;;;;;5112587;28;20035;-82
2022/12/30 03:21:49;;;;;;;6.93;2.35;;;;;;;;;;5095145;28;20062;-83
2022/12/30 03:27:03;;;;;;;7.28;1.90;;;;;;;;;;5113536;28;20127;-83
2022/12/30 03:29:40;;;;;;;4.70;1.80;;;;;;;;;;5095204;28;20031;-83
2022/12/30 03:32:09;;;;;;;6.35;1.73;;;;;;;;;;5097609;28;20118;-83
2022/12/30 03:34:34;;;;;;;6.57;2.33;;;;;;;;;;5117885;28;20466;-83
2022/12/30 03:37:06;;;;;;;3.65;1.83;;;;;;;;;;5116503;28;20033;-83
2022/12/30 03:39:37;;;;;;;5.82;2.03;;;;;;;;;;5116334;28;20389;-83
2022/12/30 03:42:04;;;;;;;20.15;2.42;;;;;;;;;;5116511;28;20023;-82
2022/12/30 03:44:29;;;;;;;5.57;2.05;;;;;;;;;;5117333;28;20072;-83
2022/12/30 03:46:55;;;;;;;4.40;2.03;;;;;;;;;;5117625;28;20035;-83
2022/12/30 03:49:20;;;;;;;9.70;2.10;;;;;;;;;;5115952;28;20065;-83
2022/12/30 03:51:46;;;;;;;8.75;2.28;;;;;;;;;;5116205;28;20039;-83
2022/12/30 03:54:11;;;;;;;4.93;2.00;;;;;;;;;;5116152;28;20118;-83
2022/12/30 03:56:37;;;;;;;6.63;1.70;;;;;;;;;;5117322;28;20424;-83
2022/12/30 03:59:02;;;;;;;3.50;2.03;;;;;;;;;;5117695;28;20027;-83
2022/12/30 04:01:28;;;;;;;3.70;1.63;;;;;;;;;;5116119;28;20035;-83
2022/12/30 04:03:53;;;;;;;5.38;2.13;;;;;;;;;;5117253;28;20027;-83
2022/12/30 04:06:18;;;;;;;6.25;2.00;;;;;;;;;;5117504;28;20054;-83
2022/12/30 04:08:44;;;;;;;4.57;1.80;;;;;;;;;;5116099;28;20096;-83
2022/12/30 04:11:09;;;;;;;3.78;1.77;;;;;;;;;;5098604;28;20080;-83
2022/12/30 04:13:34;;;;;;;6.15;2.08;;;;;;;;;;5115673;28;20109;-83
2022/12/30 04:16:00;;;;;;;6.35;1.77;;;;;;;;;;5115493;28;20027;-83
2022/12/30 04:18:25;;;;;;;4.15;1.50;;;;;;;;;;5117081;28;20039;-83
2022/12/30 04:20:51;;;;;;;5.10;1.85;;;;;;;;;;5115431;28;20035;-83
2022/12/30 04:23:17;;;;;;;5.35;1.92;;;;;;;;;;5115279;28;20078;-83
2022/12/30 04:25:42;;;;;;;3.63;1.80;;;;;;;;;;5115440;28;20378;-83
2022/12/30 04:28:08;;;;;;;4.97;2.22;;;;;;;;;;5116620;28;20031;-83
2022/12/30 04:30:33;;;;;;;4.55;1.90;;;;;;;;;;5098978;28;20054;-84
2022/12/30 04:32:59;;;;;;;3.45;1.90;;;;;;;;;;5115571;28;20032;-82
2022/12/30 04:35:25;;;;;;;6.22;2.08;;;;;;;;;;5116979;28;20096;-83
2022/12/30 04:37:50;;;;;;;6.05;1.92;;;;;;;;;;5115490;28;20103;-83
2022/12/30 04:40:16;;;;;;;6.03;1.70;;;;;;;;;;5116692;28;20027;-82
2022/12/30 04:42:42;;;;;;;2.70;1.58;;;;;;;;;;5115001;28;20032;-82
2022/12/30 04:45:08;;;;;;;7.03;2.00;;;;;;;;;;5114984;28;20042;-82
2022/12/30 04:47:33;;;;;;;8.30;1.83;;;;;;;;;;5098473;28;20126;-83
2022/12/30 04:49:58;;;;;;;5.00;1.67;;;;;;;;;;5098667;28;20067;-83
2022/12/30 04:52:24;;;;;;;3.45;1.70;;;;;;;;;;5116657;28;20114;-82
2022/12/30 04:54:49;;;;;;;4.00;1.90;;;;;;;;;;5116528;28;20421;-83
2022/12/30 04:57:15;;;;;;;8.55;1.75;;;;;;;;;;5116076;28;20530;-82
2022/12/30 04:59:40;;;;;;;5.50;1.77;;;;;;;;;;5116740;28;20035;-83
2022/12/30 05:02:06;;;;;;;5.35;1.58;;;;;;;;;;5117398;28;20474;-82
2022/12/30 05:04:31;;;;;;;5.22;1.75;;;;;;;;;;5119667;28;20087;-82
2022/12/30 05:06:57;;;;;;;4.78;1.73;;;;;;;;;;5116422;28;20086;-82
2022/12/30 05:09:22;;;;;;;4.28;1.75;;;;;;;;;;5116389;28;20038;-82
2022/12/30 05:11:47;;;;;;;5.80;1.70;;;;;;;;;;5116917;28;20431;-82
2022/12/30 05:14:13;;;;;;;4.13;1.92;;;;;;;;;;5110414;28;20114;-83
2022/12/30 05:16:38;;;;;;;3.20;1.40;;;;;;;;;;5092533;28;20031;-83
2022/12/30 05:19:04;;;;;;;4.13;1.80;;;;;;;;;;5106909;28;20538;-83
2022/12/30 05:21:29;;;;;;;3.72;1.65;;;;;;;;;;5116393;28;20031;-83
2022/12/30 05:26:38;;;;;;;6.38;1.92;;;;;;;;;;5101419;28;20035;-82
2022/12/30 05:29:04;;;;;;;3.17;1.48;;;;;;;;;;5097911;28;20043;-82
2022/12/30 05:31:29;;;;;;;4.00;1.40;;;;;;;;;;5114883;28;20032;-82
2022/12/30 05:33:54;;;;;;;4.57;1.65;;;;;;;;;;5114703;28;20052;-83
2022/12/30 05:36:20;;;;;;;4.47;2.00;;;;;;;;;;5115971;28;20073;-82
2022/12/30 05:38:46;;;;;;;2.95;1.30;;;;;;;;;;5114520;28;20036;-83
2022/12/30 05:41:12;;;;;;;4.10;1.77;;;;;;;;;;5097355;28;20023;-83
2022/12/30 05:43:37;;;;;;;3.65;1.42;;;;;;;;;;5114155;28;20036;-83
2022/12/30 05:46:03;;;;;;;4.32;1.77;;;;;;;;;;5115325;27;20102;-83
2022/12/30 05:48:28;;;;;;;2.47;1.25;;;;;;;;;;5097339;28;20111;-84
2022/12/30 05:50:53;;;;;;;3.05;1.70;;;;;;;;;;5115262;28;20043;-85
2022/12/30 05:53:19;;;;;;;5.63;1.58;;;;;;;;;;5113893;28;20016;-82
2022/12/30 05:55:44;;;;;;;7.97;1.60;;;;;;;;;;5114720;28;20034;-83
2022/12/30 05:58:10;;;;;;;2.65;1.30;;;;;;;;;;5115004;28;20060;-83
2022/12/30 06:00:35;;;;;;;3.42;1.50;;;;;;;;;;5079997;28;20043;-83
2022/12/30 06:03:01;;;;;;;4.18;1.50;;;;;;;;;;5114315;28;20080;-83
2022/12/30 06:05:26;;;;;;;3.85;1.52;;;;;;;;;;5097664;28;20439;-84
2022/12/30 06:07:52;;;;;;;11.43;1.58;;;;;;;;;;5096702;28;20023;-84
2022/12/30 06:10:17;;;;;;;4.38;1.45;;;;;;;;;;5113684;28;20032;-82
2022/12/30 06:12:43;;;;;;;3.05;1.60;;;;;;;;;;5114671;28;20050;-81
2022/12/30 06:15:09;;;;;;;5.10;1.60;;;;;;;;;;5115821;27;20024;-82
2022/12/30 06:17:34;;;;;;;1.92;1.20;;;;;;;;;;5115973;28;20023;-83
2022/12/30 06:19:59;;;;;;;2.92;1.40;;;;;;;;;;5114297;28;20051;-83
2022/12/30 06:22:25;;;;;;;12.45;2.70;;;;;;;;;;5115152;28;20028;-83
2022/12/30 06:24:50;;;;;;;9.48;2.70;;;;;;;;;;5113716;28;20362;-82
2022/12/30 06:27:15;;;;;;;9.25;2.25;;;;;;;;;;5096393;28;20032;-83
2022/12/30 06:29:41;;;;;;;9.43;2.50;;;;;;;;;;5096242;28;20030;-84
2022/12/30 06:32:06;;;;;;;9.48;2.85;;;;;;;;;;5114611;28;20040;-81
2022/12/30 06:34:32;;;;;;;13.75;4.05;;;;;;;;;;5114699;28;20024;-82
2022/12/30 06:36:57;;;;;;;12.40;2.72;;;;;;;;;;5113020;28;20366;-81
2022/12/30 06:39:22;;;;;;;12.23;2.92;;;;;;;;;;5115448;28;20031;-82
2022/12/30 06:41:48;;;;;;;6.97;3.00;;;;;;;;;;5115012;28;20023;-83
2022/12/30 06:44:13;;;;;;;14.70;2.67;;;;;;;;;;5114522;28;20089;-84
2022/12/30 06:46:38;;;;;;;9.48;2.65;;;;;;;;;;5114473;28;20038;-85
2022/12/30 06:49:04;;;;;;;17.17;2.72;;;;;;;;;;5114471;27;20028;-83
2022/12/30 06:51:29;;;;;;;52.92;9.77;;;;;;;;;;5113205;28;20032;-85
2022/12/30 06:53:55;;;;;;;35.53;7.13;;;;;;;;;;5112869;28;20096;-84
2022/12/30 06:56:20;;;;;;;31.92;6.90;;;;;;;;;;5114030;28;20024;-83
2022/12/30 06:58:45;;;;;;;21.08;4.78;;;;;;;;;;5114283;28;20602;-84
2022/12/30 07:01:11;;;;;;;39.80;5.60;;;;;;;;;;5114295;28;20545;-83
2022/12/30 07:03:36;;;;;;;19.10;4.82;;;;;;;;;;5112573;28;20035;-81
2022/12/30 07:06:02;;;;;;;23.70;5.20;;;;;;;;;;5113892;28;20031;-80
2022/12/30 07:08:27;;;;;;;19.05;4.43;;;;;;;;;;5112583;28;20028;-80
2022/12/30 07:10:54;;;;;;;17.98;4.03;;;;;;;;;;5113786;28;20102;-80
2022/12/30 07:13:20;;;;;;;13.98;3.50;;;;;;;;;;5112561;28;20093;-83
2022/12/30 07:15:45;;;;;;;17.40;4.00;;;;;;;;;;5114061;28;20063;-84
2022/12/30 07:18:10;;;;;;;12.02;4.03;;;;;;;;;;5113936;28;20055;-81
2022/12/30 07:20:36;;;;;;;17.15;3.95;;;;;;;;;;5112517;28;20031;-81
2022/12/30 07:23:02;;;;;;;15.27;3.70;;;;;;;;;;5112773;28;20023;-80
2022/12/30 07:25:28;;;;;;;10.40;3.25;;;;;;;;;;5094922;28;20035;-82
2022/12/30 07:28:00;;;;;;;10.27;3.50;;;;;;;;;;5112382;28;20028;-83
2022/12/30 07:30:27;;;;;;;15.65;3.15;;;;;;;;;;5113079;28;20448;-83
2022/12/30 07:32:52;;;;;;;9.90;3.47;;;;;;;;;;5113141;28;20070;-83
2022/12/30 07:35:18;;;;;;;9.75;3.25;;;;;;;;;;5095521;28;20051;-82
2022/12/30 07:37:43;;;;;;;7.57;2.47;;;;;;;;;;5112319;28;20032;-82
2022/12/30 07:40:09;;;;;;;7.82;2.33;;;;;;;;;;5112328;28;20554;-83
2022/12/30 07:42:34;;;;;;;11.50;2.63;;;;;;;;;;5113184;28;20027;-83
2022/12/30 07:45:00;;;;;;;9.30;2.60;;;;;;;;;;5112352;28;20050;-84
2022/12/30 07:47:26;;;;;;;8.15;2.35;;;;;;;;;;5095565;28;20062;-83
2022/12/30 07:49:51;;;;;;;9.85;2.65;;;;;;;;;;5113774;28;20028;-81
2022/12/30 07:52:16;;;;;;;12.98;2.28;;;;;;;;;;5112037;28;20135;-83
2022/12/30 07:54:42;;;;;;;10.88;2.92;;;;;;;;;;5104811;28;20032;-82
2022/12/30 07:57:07;;;;;;;9.55;2.63;;;;;;;;;;5091385;28;20517;-81
2022/12/30 07:59:33;;;;;;;6.03;2.10;;;;;;;;;;5094666;28;20043;-82
2022/12/30 08:01:58;;;;;;;6.70;1.85;;;;;;;;;;5095527;28;20055;-82
2022/12/30 08:04:23;;;;;;;6.43;2.15;;;;;;;;;;5111834;28;20050;-82
2022/12/30 08:06:49;;;;;;;3.90;2.10;;;;;;;;;;5112478;28;20039;-83
2022/12/30 08:09:15;;;;;;;7.30;2.22;;;;;;;;;;5091873;28;20044;-84
2022/12/30 08:11:41;;;;;;;7.00;1.85;;;;;;;;;;5093336;28;20039;-86
2022/12/30 08:14:07;;;;;;;9.70;2.17;;;;;;;;;;5103500;28;20110;-85
2022/12/30 08:16:32;;;;;;;5.55;1.75;;;;;;;;;;5095621;28;20042;-86
2022/12/30 08:18:58;;;;;;;4.68;1.80;;;;;;;;;;5115377;28;20027;-84
2022/12/30 08:21:23;;;;;;;5.35;2.10;;;;;;;;;;5117383;28;20051;-83
2022/12/30 08:23:49;;;;;;;7.28;2.30;;;;;;;;;;5115998;28;20402;-84
2022/12/30 08:26:17;;;;;;;4.82;1.88;;;;;;;;;;5116517;28;20499;-87
2022/12/30 08:28:42;;;;;;;5.10;1.85;;;;;;;;;;5099260;28;20019;-86
2022/12/30 08:31:10;;;;;;;8.73;1.70;;;;;;;;;;5099604;28;20023;-85
2022/12/30 08:33:36;;;;;;;4.18;1.67;;;;;;;;;;5116234;28;20035;-85
2022/12/30 08:36:03;;;;;;;5.30;1.50;;;;;;;;;;5117433;28;20038;-84
2022/12/30 08:38:29;;;;;;;3.55;1.60;;;;;;;;;;5115688;28;20414;-85
2022/12/30 08:41:12;;;;;;;4.43;1.92;;;;;;;;;;5099306;28;20088;-85
2022/12/30 08:43:38;;;;;;;6.30;1.25;;;;;;;;;;5116103;28;20031;-84
2022/12/30 08:46:04;;;;;;;2.58;1.52;;;;;;;;;;5115964;28;20035;-85
2022/12/30 08:48:30;;;;;;;5.72;1.60;;;;;;;;;;5115885;28;20477;-84
2022/12/30 08:50:56;;;;;;;5.63;1.50;;;;;;;;;;5115829;28;20035;-85
2022/12/30 08:53:22;;;;;;;2.83;1.27;;;;;;;;;;5098623;28;20023;-85
2022/12/30 08:55:47;;;;;;;10.55;2.10;;;;;;;;;;5114842;28;20063;-85
2022/12/30 08:58:14;;;;;;;4.22;1.58;;;;;;;;;;5083021;28;20059;-84
2022/12/30 09:00:39;;;;;;;5.60;1.85;;;;;;;;;;5115550;28;20080;-82
2022/12/30 09:03:05;;;;;;;5.05;1.55;;;;;;;;;;5115465;28;20065;-84
2022/12/30 09:05:34;;;;;;;6.13;1.50;;;;;;;;;;5081400;28;20031;-84
2022/12/30 09:07:59;;;;;;;3.47;1.60;;;;;;;;;;5115849;28;20024;-83
2022/12/30 09:10:26;;;;;;;4.20;1.70;;;;;;;;;;5117176;28;20118;-84
2022/12/30 09:12:52;;;;;;;11.85;1.70;;;;;;;;;;5115762;28;20023;-82
2022/12/30 09:15:17;;;;;;;2.47;1.25;;;;;;;;;;5081289;28;20164;-85
2022/12/30 09:17:42;;;;;;;4.00;1.70;;;;;;;;;;5116407;28;20109;-84
2022/12/30 09:20:08;;;;;;;3.50;1.52;;;;;;;;;;5115230;28;20103;-86
2022/12/30 09:22:34;;;;;;;2.58;1.60;;;;;;;;;;5098315;28;20360;-85
2022/12/30 09:24:59;;;;;;;2.97;1.27;;;;;;;;;;5116388;27;20035;-85
2022/12/30 09:27:25;;;;;;;5.95;1.85;;;;;;;;;;5116055;28;20038;-84
2022/12/30 09:29:50;;;;;;;4.97;2.03;;;;;;;;;;5113995;28;20050;-84
2022/12/30 09:32:15;;;;;;;4.05;2.20;;;;;;;;;;5114728;28;20036;-84
2022/12/30 09:34:41;;;;;;;4.97;1.70;;;;;;;;;;5115524;28;20462;-84
2022/12/30 09:37:07;;;;;;;5.63;1.80;;;;;;;;;;5116136;28;20058;-86
2022/12/30 09:39:32;;;;;;;4.22;1.58;;;;;;;;;;5114582;28;20023;-86
2022/12/30 09:45:12;;;;;;;6.68;1.88;;;;;;;;;;5105905;28;20523;-86
2022/12/30 09:47:46;;;;;;;9.45;1.50;;;;;;;;;;5112999;28;20420;-84
2022/12/30 09:50:37;;;;;;;4.05;1.50;;;;;;;;;;5076936;28;20020;-82
2022/12/30 09:53:05;;;;;;;3.45;1.23;;;;;;;;;;5094242;28;20024;-86
2022/12/30 09:55:40;;;;;;;4.85;1.88;;;;;;;;;;5093622;28;20024;-84
2022/12/30 09:58:10;;;;;;;3.63;1.63;;;;;;;;;;5093780;28;20074;-87
2022/12/30 10:00:35;;;;;;;4.40;1.70;;;;;;;;;;5102849;28;20455;-84
2022/12/30 10:03:10;;;;;;;4.20;1.38;;;;;;;;;;5115705;28;20062;-87
2022/12/30 10:05:50;;;;;;;4.13;1.40;;;;;;;;;;5113922;28;20046;-83
2022/12/30 10:08:29;;;;;;;5.38;1.30;;;;;;;;;;5115407;28;20020;-84
2022/12/30 10:11:26;;;;;;;3.17;1.40;;;;;;;;;;5096940;28;20038;-82
2022/12/30 10:14:10;;;;;;;3.08;1.27;;;;;;;;;;5115025;27;20466;-87
2022/12/30 10:17:00;;;;;;;2.58;1.10;;;;;;;;;;5114746;28;20030;-83
2022/12/30 10:19:33;;;;;;;2.00;1.25;;;;;;;;;;5096450;28;20028;-82
2022/12/30 10:22:09;;;;;;;13.57;1.60;;;;;;;;;;5114929;28;20501;-84
2022/12/30 10:24:43;;;;;;;5.22;1.40;;;;;;;;;;5092626;28;20024;-83
2022/12/30 10:27:20;;;;;;;4.93;1.63;;;;;;;;;;5112809;28;20053;-83
2022/12/30 10:29:46;;;;;;;8.80;1.23;;;;;;;;;;5113083;28;20565;-83
2022/12/30 10:32:21;;;;;;;3.40;1.20;;;;;;;;;;5112810;28;20063;-83
2022/12/30 10:34:50;;;;;;;5.88;1.10;;;;;;;;;;5095574;28;20028;-83
2022/12/30 10:37:31;;;;;;;4.82;1.33;;;;;;;;;;5112572;28;20020;-84
2022/12/30 10:39:59;;;;;;;6.28;1.45;;;;;;;;;;5112610;28;20061;-83
2022/12/30 10:42:47;;;;;;;2.17;1.13;;;;;;;;;;5113888;28;20023;-83
2022/12/30 10:45:49;;;;;;;5.22;1.63;;;;;;;;;;5112329;28;20024;-82
2022/12/30 10:48:29;;;;;;;4.68;1.13;;;;;;;;;;5112379;28;20102;-82
2022/12/30 10:50:55;;;;;;;4.97;1.42;;;;;;;;;;5114186;28;20045;-83
2022/12/30 10:53:22;;;;;;;3.00;1.20;;;;;;;;;;5112721;28;20119;-83
2022/12/30 10:55:55;;;;;;;2.05;1.20;;;;;;;;;;5112670;28;20023;-83
2022/12/30 10:58:27;;;;;;;2.88;1.40;;;;;;;;;;5113690;28;20517;-83
2022/12/30 11:00:53;;;;;;;3.67;1.33;;;;;;;;;;5112927;28;20034;-84
2022/12/30 11:03:31;;;;;;;1.52;0.93;;;;;;;;;;5112489;28;20031;-84
2022/12/30 11:06:18;;;;;;;1.70;1.20;;;;;;;;;;5114835;28;20072;-84
2022/12/30 11:08:44;;;;;;;10.13;1.27;;;;;;;;;;5116743;28;20023;-83
2022/12/30 11:11:09;;;;;;;4.20;1.20;;;;;;;;;;5100856;28;20080;-81
2022/12/30 11:16:26;;;;;;;;;;;;;;;;;;5126133;28;20035;-79
2022/12/30 11:18:51;;;;;;;4.80;1.40;;;;;;;;;;5127222;28;19975;-80
2022/12/30 11:21:29;;;;;;;10.30;1.40;;;;;;;;;;5121869;28;20058;-81
2022/12/30 11:23:56;;;;;;;1.83;1.02;;;;;;;;;;5126367;28;20016;-79
2022/12/30 11:26:24;;;;;;;4.35;1.33;;;;;;;;;;5117548;28;20024;-80
2022/12/30 11:28:56;;;;;;;5.38;1.35;;;;;;;;;;5119668;28;20085;-82
2022/12/30 11:31:33;;;;;;;1.65;1.10;;;;;;;;;;5100452;28;20032;-83
2022/12/30 11:34:00;;;;;;;7.57;1.45;;;;;;;;;;5115709;28;20080;-80
2022/12/30 11:36:29;;;;;;;3.50;1.75;;;;;;;;;;5117383;28;20080;-81
2022/12/30 11:38:56;;;;;;;5.00;2.40;;;;;;;;;;5113469;28;20051;-80
2022/12/30 11:41:27;;;;;;;4.55;2.13;;;;;;;;;;5095893;28;20031;-83
2022/12/30 11:43:59;;;;;;;15.02;3.33;;;;;;;;;;5094870;28;20032;-83
2022/12/30 11:46:35;;;;;;;7.50;3.70;;;;;;;;;;5112550;28;20390;-82
2022/12/30 11:49:20;;;;;;;6.85;4.15;;;;;;;;;;5105377;28;20028;-83
2022/12/30 11:51:51;;;;;;;9.18;4.40;;;;;;;;;;5101956;28;20020;-82
2022/12/30 11:54:23;;;;;;;10.35;4.43;;;;;;;;;;5099039;28;20041;-83
2022/12/30 11:56:54;;;;;;;10.10;4.97;;;;;;;;;;5098301;28;20610;-82
2022/12/30 11:59:23;;;;;;;9.55;4.82;;;;;;;;;;5115869;28;20390;-82
2022/12/30 12:01:53;;;;;;;13.50;4.68;;;;;;;;;;5098709;28;20023;-82
2022/12/30 12:04:40;;;;;;;10.63;4.78;;;;;;;;;;5115710;28;20020;-83
2022/12/30 12:07:21;;;;;;;8.45;4.55;;;;;;;;;;5116867;28;20023;-83
2022/12/30 12:09:58;;;;;;;7.88;5.00;;;;;;;;;;5116911;28;20032;-82
2022/12/30 12:12:27;;;;;;;7.55;4.50;;;;;;;;;;5116700;28;20401;-84
2022/12/30 12:15:04;;;;;;;7.40;4.32;;;;;;;;;;5098594;28;20386;-83
2022/12/30 12:17:38;;;;;;;8.95;4.25;;;;;;;;;;5117281;28;20031;-86
2022/12/30 12:20:29;;;;;;;11.25;4.38;;;;;;;;;;5117090;28;20030;-86
2022/12/30 12:23:01;;;;;;;7.85;4.00;;;;;;;;;;5121314;28;20036;-86
2022/12/30 12:25:33;;;;;;;6.90;3.75;;;;;;;;;;5137957;28;20047;-86
2022/12/30 12:27:59;;;;;;;7.65;3.63;;;;;;;;;;5138393;27;20528;-86
2022/12/30 12:30:31;;;;;;;5.70;3.45;;;;;;;;;;5102093;28;20032;-86
2022/12/30 12:33:16;;;;;;;5.50;3.58;;;;;;;;;;5099648;28;20019;-86
2022/12/30 12:35:57;;;;;;;4.93;3.03;;;;;;;;;;5099045;28;20028;-86
2022/12/30 12:38:41;;;;;;;7.32;3.00;;;;;;;;;;5115877;28;20091;-86
2022/12/30 12:41:12;;;;;;;;;;;;;;;;;;5117430;28;20020;-86
2022/12/30 12:43:47;;;;;;;7.28;3.47;;;;;;;;;;5115740;28;20415;-86
2022/12/30 12:46:22;;;;;;;4.35;2.58;;;;;;;;;;5117217;28;20051;-85
2022/12/30 12:49:15;;;;;;;6.38;2.97;;;;;;;;;;5117085;28;20030;-85
2022/12/30 12:51:56;;;;;;;6.75;3.05;;;;;;;;;;5116882;28;20092;-86
2022/12/30 12:54:30;;;;;;;5.03;2.92;;;;;;;;;;5098284;28;20026;-86
2022/12/30 12:57:05;;;;;;;6.30;3.08;;;;;;;;;;5115088;28;20075;-86
2022/12/30 12:59:49;;;;;;;5.13;2.92;;;;;;;;;;5115185;28;20470;-86
2022/12/30 13:02:41;;;;;;;4.25;2.17;;;;;;;;;;5117547;28;20081;-85
2022/12/30 13:05:10;;;;;;;6.05;2.60;;;;;;;;;;5116843;28;20032;-86
2022/12/30 13:07:56;;;;;;;3.50;2.47;;;;;;;;;;5116535;28;20027;-85
2022/12/30 13:10:34;;;;;;;5.70;2.65;;;;;;;;;;5115165;28;20044;-85
2022/12/30 13:13:18;;;;;;;4.80;2.60;;;;;;;;;;5098023;28;20035;-84
2022/12/30 13:15:54;;;;;;;;;;;;;;;;;;5115292;28;20378;-84
2022/12/30 13:18:22;;;;;;;4.85;2.20;;;;;;;;;;5115227;28;20425;-84
2022/12/30 13:20:51;;;;;;;3.83;2.00;;;;;;;;;;5116768;28;20108;-84
2022/12/30 13:23:19;;;;;;;6.85;2.60;;;;;;;;;;5116781;28;20024;-84
2022/12/30 13:25:52;;;;;;;4.47;2.33;;;;;;;;;;5098783;28;20039;-84
2022/12/30 13:28:26;;;;;;;4.57;2.05;;;;;;;;;;5115326;28;20473;-85
2022/12/30 13:30:59;;;;;;;3.70;1.88;;;;;;;;;;5114592;28;20031;-84
2022/12/30 13:33:34;;;;;;;2.20;1.63;;;;;;;;;;5114634;28;20118;-84
2022/12/30 13:36:02;;;;;;;4.00;2.25;;;;;;;;;;5114610;28;20259;-84
2022/12/30 13:38:40;;;;;;;3.13;2.10;;;;;;;;;;5114449;28;20031;-84
2022/12/30 13:41:24;;;;;;;3.75;1.77;;;;;;;;;;5115486;28;20098;-83
2022/12/30 13:43:55;;;;;;;3.65;1.77;;;;;;;;;;5115483;28;20024;-83
2022/12/30 13:46:22;;;;;;;4.32;1.80;;;;;;;;;;5115638;28;20032;-83
2022/12/30 13:49:04;;;;;;;5.72;2.00;;;;;;;;;;5097077;28;20028;-84
2022/12/30 13:51:30;;;;;;;4.32;1.60;;;;;;;;;;5114210;28;20019;-84
2022/12/30 13:54:01;;;;;;;2.75;1.50;;;;;;;;;;5114034;28;20395;-85
2022/12/30 13:56:47;;;;;;;3.13;1.75;;;;;;;;;;5115099;28;20138;-83
2022/12/30 13:59:22;;;;;;;3.45;1.65;;;;;;;;;;5113946;28;20019;-84
2022/12/30 14:01:48;;;;;;;5.07;1.73;;;;;;;;;;5097073;28;20038;-86
2022/12/30 14:04:29;;;;;;;2.38;1.50;;;;;;;;;;5113725;28;20036;-85
2022/12/30 14:06:55;;;;;;;3.35;1.70;;;;;;;;;;5096920;28;20028;-86
2022/12/30 14:09:23;;;;;;;4.10;1.75;;;;;;;;;;5114100;28;20424;-86
2022/12/30 14:12:04;;;;;;;3.63;1.75;;;;;;;;;;5096777;28;20019;-86
2022/12/30 14:14:33;;;;;;;3.30;1.75;;;;;;;;;;5115220;28;20073;-87
2022/12/30 14:17:29;;;;;;;3.67;1.88;;;;;;;;;;5113747;28;20036;-88
2022/12/30 14:19:58;;;;;;;2.50;1.40;;;;;;;;;;5111521;28;20092;-87
2022/12/30 14:22:39;;;;;;;1.95;1.50;;;;;;;;;;5098565;28;20023;-82
2022/12/30 14:25:14;;;;;;;4.72;1.45;;;;;;;;;;5114582;28;20073;-81
2022/12/30 14:27:41;;;;;;;3.35;1.50;;;;;;;;;;5114883;28;20051;-80
2022/12/30 14:30:29;;;;;;;2.60;1.33;;;;;;;;;;5113761;28;20523;-88
2022/12/30 14:33:12;;;;;;;1.90;1.30;;;;;;;;;;5115012;28;20039;-88
2022/12/30 14:35:57;;;;;;;2.10;1.45;;;;;;;;;;5114849;28;20474;-87
2022/12/30 14:38:23;;;;;;;1.67;1.33;;;;;;;;;;5114432;28;20027;-87
2022/12/30 14:41:01;;;;;;;2.70;1.25;;;;;;;;;;5114501;28;20020;-87
2022/12/30 14:43:28;;;;;;;2.05;1.20;;;;;;;;;;5113912;28;20480;-87
2022/12/30 14:46:30;;;;;;;1.50;1.17;;;;;;;;;;5114027;28;20085;-87
2022/12/30 14:49:33;;;;;;;1.95;1.10;;;;;;;;;;5116628;28;20019;-88
2022/12/30 14:52:09;;;;;;;1.90;1.15;;;;;;;;;;5115533;28;20030;-86
2022/12/30 14:54:37;;;;;;;1.40;1.20;;;;;;;;;;5114805;28;20012;-87
2022/12/30 14:57:11;;;;;;;2.97;1.13;;;;;;;;;;5095796;28;20054;-86
2022/12/30 15:00:12;;;;;;;2.50;1.33;;;;;;;;;;5114153;28;20035;-85
2022/12/30 15:02:50;;;;;;;1.77;1.00;;;;;;;;;;5063519;28;20506;-85
2022/12/30 15:05:20;;;;;;;3.38;1.10;;;;;;;;;;5113759;28;20031;-85
2022/12/30 15:07:48;;;;;;;1.85;1.30;;;;;;;;;;5113974;28;20104;-84
2022/12/30 15:10:39;;;;;;;3.10;1.60;;;;;;;;;;5114270;28;20034;-86
2022/12/30 15:13:13;;;;;;;1.55;1.15;;;;;;;;;;5100640;28;20065;-84
2022/12/30 15:15:39;;;;;;;1.80;1.05;;;;;;;;;;5114260;28;20403;-84
2022/12/30 15:18:31;;;;;;;2.45;0.90;;;;;;;;;;5114069;28;20038;-84
2022/12/30 15:20:56;;;;;;;2.97;1.20;;;;;;;;;;5095744;28;20027;-83
2022/12/30 15:23:22;;;;;;;1.60;1.10;;;;;;;;;;5112129;28;20034;-81
2022/12/30 15:26:03;;;;;;;3.50;1.13;;;;;;;;;;5112619;28;20027;-86
2022/12/30 15:28:30;;;;;;;1.83;0.93;;;;;;;;;;5115924;28;20465;-86
2022/12/30 15:30:55;;;;;;;1.50;1.10;;;;;;;;;;5117145;28;20042;-85
2022/12/30 15:33:20;;;;;;;1.55;1.10;;;;;;;;;;5118379;28;20019;-85
2022/12/30 15:35:46;;;;;;;1.25;0.88;;;;;;;;;;5117249;28;20042;-87
2022/12/30 15:38:15;;;;;;;1.80;1.20;;;;;;;;;;5100244;28;20502;-86
2022/12/30 15:40:43;;;;;;;1.40;1.00;;;;;;;;;;5118750;28;20031;-85
2022/12/30 15:43:17;;;;;;;2.97;0.90;;;;;;;;;;5116551;28;20024;-86
2022/12/30 15:45:55;;;;;;;1.70;0.80;;;;;;;;;;5116772;28;20023;-88
2022/12/30 15:48:29;;;;;;;2.00;0.80;;;;;;;;;;5116393;28;20024;-84
2022/12/30 15:51:04;;;;;;;1.67;0.88;;;;;;;;;;5117932;28;20015;-84
2022/12/30 15:53:31;;;;;;;1.58;0.80;;;;;;;;;;5099367;28;20059;-84
2022/12/30 15:55:57;;;;;;;1.10;0.85;;;;;;;;;;5117624;28;20023;-84
2022/12/30 15:58:43;;;;;;;1.38;0.90;;;;;;;;;;5116141;28;20051;-83